Time;durP1;ratioP1;P1;durP2;ratioP2;P2;SDS_P1;SDS_P2;PMS_P1;PMS_P2;Temp;Humidity;BMP_temperature;BMP_pressure;BME280_temperature;BME280_humidity;BME280_pressure;Samples;Min_cycle;Max_cycle;Signal;HPM_P1;HPM_P2
2022/04/27 00:00:28;;;;;;;7.73;3.83;;;;;;;;;;5114797;28;20206;-54
2022/04/27 00:02:56;;;;;;;6.00;4.00;;;;;;;;;;5114842;28;20203;-54
2022/04/27 00:05:23;;;;;;;7.83;3.90;;;;;;;;;;5114622;28;20248;-54
2022/04/27 00:07:49;;;;;;;8.30;3.83;;;;;;;;;;5114464;28;20768;-54
2022/04/27 00:10:15;;;;;;;7.27;4.07;;;;;;;;;;5114814;28;20195;-54
2022/04/27 00:12:41;;;;;;;7.13;4.20;;;;;;;;;;5114558;28;20226;-54
2022/04/27 00:15:08;;;;;;;8.17;4.03;;;;;;;;;;5114403;28;20237;-54
2022/04/27 00:17:34;;;;;;;5.57;3.97;;;;;;;;;;5114464;28;20194;-54
2022/04/27 00:20:00;;;;;;;6.43;4.00;;;;;;;;;;5114647;28;20194;-54
2022/04/27 00:22:27;;;;;;;6.40;4.30;;;;;;;;;;5114490;28;20193;-54
2022/04/27 00:24:53;;;;;;;8.80;4.27;;;;;;;;;;5113775;28;20308;-54
2022/04/27 00:27:19;;;;;;;5.57;3.87;;;;;;;;;;5113894;28;20316;-54
2022/04/27 00:29:45;;;;;;;6.20;3.60;;;;;;;;;;5114060;28;20290;-54
2022/04/27 00:32:11;;;;;;;6.87;4.20;;;;;;;;;;5114097;28;20536;-54
2022/04/27 00:34:37;;;;;;;6.53;4.30;;;;;;;;;;5113792;28;20243;-54
2022/04/27 00:37:03;;;;;;;6.30;3.53;;;;;;;;;;5113629;28;20563;-54
2022/04/27 00:39:31;;;;;;;6.03;3.97;;;;;;;;;;5113538;28;20729;-54
2022/04/27 00:42:00;;;;;;;4.90;3.63;;;;;;;;;;5113586;28;20217;-53
2022/04/27 00:44:26;;;;;;;7.10;4.00;;;;;;;;;;5113383;28;20671;-54
2022/04/27 00:46:52;;;;;;;7.50;3.53;;;;;;;;;;5112503;28;20224;-53
2022/04/27 00:49:18;;;;;;;4.17;3.40;;;;;;;;;;5113563;28;20198;-55
2022/04/27 00:51:44;;;;;;;8.53;4.20;;;;;;;;;;5113654;28;20217;-54
2022/04/27 00:54:11;;;;;;;6.47;3.70;;;;;;;;;;5113641;28;20215;-54
2022/04/27 00:56:40;;;;;;;5.53;3.37;;;;;;;;;;5113387;28;20220;-54
2022/04/27 00:59:06;;;;;;;5.40;4.07;;;;;;;;;;5113426;28;20205;-54
2022/04/27 01:01:35;;;;;;;6.63;3.83;;;;;;;;;;5113578;28;20199;-54
2022/04/27 01:04:04;;;;;;;3.97;3.43;;;;;;;;;;5113496;28;20198;-54
2022/04/27 01:06:30;;;;;;;9.37;3.60;;;;;;;;;;5113302;28;20540;-54
2022/04/27 01:08:56;;;;;;;8.87;3.63;;;;;;;;;;5113224;28;20225;-54
2022/04/27 01:11:22;;;;;;;7.47;4.13;;;;;;;;;;5113255;28;20255;-54
2022/04/27 01:13:49;;;;;;;3.70;3.40;;;;;;;;;;5112922;28;20259;-54
2022/04/27 01:16:15;;;;;;;9.83;4.13;;;;;;;;;;5113223;28;20707;-54
2022/04/27 01:18:42;;;;;;;6.60;3.87;;;;;;;;;;5113030;28;20194;-54
2022/04/27 01:21:10;;;;;;;7.27;3.57;;;;;;;;;;5113091;28;20198;-54
2022/04/27 01:23:36;;;;;;;7.93;3.90;;;;;;;;;;5112774;28;20426;-54
2022/04/27 01:26:08;;;;;;;6.47;4.00;;;;;;;;;;5113004;28;20202;-54
2022/04/27 01:28:37;;;;;;;6.43;4.00;;;;;;;;;;5112810;28;20293;-54
2022/04/27 01:31:04;;;;;;;5.50;3.80;;;;;;;;;;5112790;28;20595;-53
2022/04/27 01:33:30;;;;;;;6.47;3.87;;;;;;;;;;5112846;28;20221;-54
2022/04/27 01:35:58;;;;;;;6.40;4.20;;;;;;;;;;5112694;28;20194;-54
2022/04/27 01:38:25;;;;;;;9.50;4.10;;;;;;;;;;5112663;28;20269;-54
2022/04/27 01:40:53;;;;;;;4.70;3.90;;;;;;;;;;5112736;28;20202;-54
2022/04/27 01:43:19;;;;;;;6.27;3.90;;;;;;;;;;5112727;28;20194;-53
2022/04/27 01:45:45;;;;;;;5.10;4.03;;;;;;;;;;5112626;28;20251;-54
2022/04/27 01:48:12;;;;;;;8.97;4.13;;;;;;;;;;5112601;28;20257;-53
2022/04/27 01:50:38;;;;;;;6.33;4.03;;;;;;;;;;5112463;28;20391;-54
2022/04/27 01:55:50;;;;;;;7.20;4.03;;;;;;;;;;5112347;28;20295;-54
2022/04/27 01:58:16;;;;;;;7.23;4.60;;;;;;;;;;5111979;28;20202;-54
2022/04/27 02:00:42;;;;;;;7.37;4.53;;;;;;;;;;5112269;28;20646;-54
2022/04/27 02:03:08;;;;;;;6.97;4.67;;;;;;;;;;5112142;28;20201;-53
2022/04/27 02:05:34;;;;;;;7.23;3.97;;;;;;;;;;5112081;28;20190;-53
2022/04/27 02:08:01;;;;;;;5.87;4.20;;;;;;;;;;5112318;28;20218;-53
2022/04/27 02:10:27;;;;;;;7.50;4.20;;;;;;;;;;5112207;28;20190;-54
2022/04/27 02:12:54;;;;;;;6.97;4.27;;;;;;;;;;5112322;28;20194;-54
2022/04/27 02:15:20;;;;;;;5.73;4.20;;;;;;;;;;5112180;28;20233;-53
2022/04/27 02:17:46;;;;;;;8.00;4.60;;;;;;;;;;5112328;28;20622;-54
2022/04/27 02:20:12;;;;;;;8.93;4.77;;;;;;;;;;5112325;28;20285;-54
2022/04/27 02:22:39;;;;;;;9.20;4.50;;;;;;;;;;5112067;28;20200;-53
2022/04/27 02:25:05;;;;;;;5.67;4.03;;;;;;;;;;5112039;28;20218;-53
2022/04/27 02:27:32;;;;;;;7.63;4.73;;;;;;;;;;5111585;28;20797;-53
2022/04/27 02:30:00;;;;;;;9.47;4.30;;;;;;;;;;5112257;28;20198;-53
2022/04/27 02:32:26;;;;;;;6.03;4.13;;;;;;;;;;5111907;28;20202;-53
2022/04/27 02:34:52;;;;;;;5.67;4.13;;;;;;;;;;5111624;28;20190;-53
2022/04/27 02:37:18;;;;;;;9.30;4.70;;;;;;;;;;5111805;28;20181;-53
2022/04/27 02:39:44;;;;;;;8.67;4.63;;;;;;;;;;5112016;28;20198;-53
2022/04/27 02:42:10;;;;;;;8.23;4.50;;;;;;;;;;5111927;28;20195;-53
2022/04/27 02:44:36;;;;;;;7.60;4.50;;;;;;;;;;5112157;28;20201;-53
2022/04/27 02:47:03;;;;;;;7.73;5.00;;;;;;;;;;5112014;28;20202;-53
2022/04/27 02:52:14;;;;;;;9.30;4.70;;;;;;;;;;5112266;28;20189;-52
2022/04/27 02:54:40;;;;;;;6.47;4.57;;;;;;;;;;5111388;28;20293;-53
2022/04/27 02:57:06;;;;;;;5.53;4.27;;;;;;;;;;5111664;28;20251;-53
2022/04/27 02:59:33;;;;;;;9.23;4.43;;;;;;;;;;5111711;28;20701;-53
2022/04/27 03:02:00;;;;;;;5.83;4.13;;;;;;;;;;5111786;28;20623;-54
2022/04/27 03:04:27;;;;;;;5.63;4.30;;;;;;;;;;5111660;28;20247;-53
2022/04/27 03:06:53;;;;;;;6.10;4.80;;;;;;;;;;5111704;28;20214;-53
2022/04/27 03:09:20;;;;;;;7.57;4.47;;;;;;;;;;5113422;28;20230;-53
2022/04/27 03:11:46;;;;;;;8.13;4.60;;;;;;;;;;5115670;28;20216;-53
2022/04/27 03:14:12;;;;;;;5.50;4.43;;;;;;;;;;5115548;28;20242;-54
2022/04/27 03:16:38;;;;;;;5.67;4.50;;;;;;;;;;5115356;28;20190;-54
2022/04/27 03:19:04;;;;;;;6.33;4.90;;;;;;;;;;5115136;28;20197;-54
2022/04/27 03:21:32;;;;;;;8.77;4.40;;;;;;;;;;5115221;28;20660;-54
2022/04/27 03:23:58;;;;;;;9.13;4.67;;;;;;;;;;5115292;28;20779;-54
2022/04/27 03:26:24;;;;;;;7.00;4.27;;;;;;;;;;5115316;28;20226;-54
2022/04/27 03:28:50;;;;;;;11.17;4.40;;;;;;;;;;5115023;28;20224;-54
2022/04/27 03:31:17;;;;;;;7.50;4.57;;;;;;;;;;5115245;28;20218;-54
2022/04/27 03:33:43;;;;;;;6.07;4.53;;;;;;;;;;5115123;28;20225;-54
2022/04/27 03:36:09;;;;;;;6.37;4.30;;;;;;;;;;5115109;28;20672;-54
2022/04/27 03:38:36;;;;;;;7.43;4.67;;;;;;;;;;5114923;28;20190;-54
2022/04/27 03:41:02;;;;;;;6.33;4.40;;;;;;;;;;5115091;28;20221;-54
2022/04/27 03:43:28;;;;;;;5.93;4.93;;;;;;;;;;5114987;28;20603;-54
2022/04/27 03:45:54;;;;;;;7.83;5.23;;;;;;;;;;5114935;28;20206;-54
2022/04/27 03:48:20;;;;;;;6.07;4.53;;;;;;;;;;5114761;28;20226;-54
2022/04/27 03:50:46;;;;;;;9.33;5.17;;;;;;;;;;5114717;28;20233;-53
2022/04/27 03:53:12;;;;;;;5.20;4.70;;;;;;;;;;5114912;28;20606;-53
2022/04/27 03:55:39;;;;;;;8.33;5.30;;;;;;;;;;5114748;28;20198;-54
2022/04/27 03:58:06;;;;;;;5.60;4.57;;;;;;;;;;5114446;28;20665;-54
2022/04/27 04:00:32;;;;;;;9.30;4.70;;;;;;;;;;5114672;28;20202;-54
2022/04/27 04:02:59;;;;;;;11.20;5.17;;;;;;;;;;5114778;28;20557;-54
2022/04/27 04:05:25;;;;;;;11.60;5.60;;;;;;;;;;5114612;28;20195;-54
2022/04/27 04:07:51;;;;;;;7.10;5.40;;;;;;;;;;5114070;28;20210;-54
2022/04/27 04:10:17;;;;;;;6.60;4.73;;;;;;;;;;5114872;28;20228;-54
2022/04/27 04:12:45;;;;;;;8.10;4.77;;;;;;;;;;5114558;28;20194;-53
2022/04/27 04:15:12;;;;;;;8.87;5.50;;;;;;;;;;5114158;28;20222;-54
2022/04/27 04:17:40;;;;;;;9.07;4.87;;;;;;;;;;5114205;28;20190;-52
2022/04/27 04:20:07;;;;;;;8.33;5.13;;;;;;;;;;5113884;28;20438;-54
2022/04/27 04:22:33;;;;;;;7.63;5.10;;;;;;;;;;5114070;28;20209;-53
2022/04/27 04:30:29;;;;;;;9.07;5.10;;;;;;;;;;5114127;28;20576;-53
2022/04/27 04:32:55;;;;;;;7.00;5.40;;;;;;;;;;5114113;28;20194;-54
2022/04/27 04:35:21;;;;;;;8.40;5.40;;;;;;;;;;5113736;28;20205;-54
2022/04/27 04:37:48;;;;;;;7.70;5.70;;;;;;;;;;5113787;28;20194;-54
2022/04/27 04:40:14;;;;;;;9.53;5.33;;;;;;;;;;5114048;28;20297;-54
2022/04/27 04:42:40;;;;;;;6.33;4.67;;;;;;;;;;5113657;28;20668;-53
2022/04/27 04:45:08;;;;;;;6.23;4.87;;;;;;;;;;5113805;28;20248;-54
2022/04/27 04:47:34;;;;;;;6.80;5.00;;;;;;;;;;5113414;28;20222;-53
2022/04/27 04:50:00;;;;;;;5.67;5.03;;;;;;;;;;5113661;28;20193;-54
2022/04/27 04:52:27;;;;;;;10.87;5.77;;;;;;;;;;5113735;28;20743;-53
2022/04/27 04:54:53;;;;;;;11.13;5.23;;;;;;;;;;5113384;28;20270;-54
2022/04/27 04:57:19;;;;;;;8.67;5.10;;;;;;;;;;5113406;28;20210;-54
2022/04/27 04:59:45;;;;;;;11.20;5.40;;;;;;;;;;5113312;28;20535;-54
2022/04/27 05:02:12;;;;;;;9.23;5.20;;;;;;;;;;5113470;28;20201;-54
2022/04/27 05:04:38;;;;;;;9.20;5.10;;;;;;;;;;5113183;28;20214;-54
2022/04/27 05:07:04;;;;;;;8.13;4.90;;;;;;;;;;5113027;28;20205;-54
2022/04/27 05:09:30;;;;;;;6.37;5.07;;;;;;;;;;5113055;28;20312;-54
2022/04/27 05:11:56;;;;;;;7.03;4.77;;;;;;;;;;5112908;28;20236;-54
2022/04/27 05:14:22;;;;;;;7.60;5.07;;;;;;;;;;5112687;28;20234;-53
2022/04/27 05:16:48;;;;;;;7.47;5.20;;;;;;;;;;5112738;28;20506;-54
2022/04/27 05:19:15;;;;;;;8.10;5.47;;;;;;;;;;5112820;28;20241;-54
2022/04/27 05:21:41;;;;;;;12.93;5.90;;;;;;;;;;5112677;28;20201;-53
2022/04/27 05:24:07;;;;;;;11.07;5.37;;;;;;;;;;5112801;28;20221;-53
2022/04/27 05:26:33;;;;;;;12.53;5.17;;;;;;;;;;5113085;28;20239;-54
2022/04/27 05:32:00;;;;;;;7.90;5.07;;;;;;;;;;5111937;28;20225;-53
2022/04/27 05:34:30;;;;;;;11.07;5.60;;;;;;;;;;5112622;28;20531;-53
2022/04/27 05:36:56;;;;;;;10.60;6.10;;;;;;;;;;5112638;28;20645;-53
2022/04/27 05:39:22;;;;;;;7.90;6.10;;;;;;;;;;5112797;28;20205;-54
2022/04/27 05:41:51;;;;;;;9.87;6.93;;;;;;;;;;5112418;28;20198;-53
2022/04/27 05:44:17;;;;;;;9.47;6.90;;;;;;;;;;5112494;28;20224;-50
2022/04/27 05:46:44;;;;;;;8.87;5.87;;;;;;;;;;5112454;28;20232;-51
2022/04/27 05:49:10;;;;;;;9.17;6.10;;;;;;;;;;5112443;28;20221;-51
2022/04/27 05:51:54;;;;;;;8.90;6.13;;;;;;;;;;5112438;28;20202;-52
2022/04/27 05:54:21;;;;;;;10.93;6.60;;;;;;;;;;5111901;28;20202;-51
2022/04/27 05:56:47;;;;;;;11.10;6.47;;;;;;;;;;5111707;28;20687;-52
2022/04/27 05:59:13;;;;;;;11.07;6.53;;;;;;;;;;5112349;28;20178;-51
2022/04/27 06:01:39;;;;;;;9.80;6.60;;;;;;;;;;5112092;28;20202;-51
2022/04/27 06:04:05;;;;;;;10.73;6.17;;;;;;;;;;5112145;28;20613;-51
2022/04/27 06:06:31;;;;;;;7.57;6.17;;;;;;;;;;5112119;28;20186;-50
2022/04/27 06:08:57;;;;;;;7.10;5.87;;;;;;;;;;5112011;28;20222;-50
2022/04/27 06:11:24;;;;;;;6.67;6.00;;;;;;;;;;5111992;28;20199;-51
2022/04/27 06:13:50;;;;;;;10.07;6.67;;;;;;;;;;5111910;28;20201;-51
2022/04/27 06:16:17;;;;;;;7.63;6.00;;;;;;;;;;5112033;28;20210;-50
2022/04/27 06:18:45;;;;;;;12.20;5.80;;;;;;;;;;5111941;28;20241;-52
2022/04/27 06:21:11;;;;;;;8.93;6.17;;;;;;;;;;5112062;28;20202;-51
2022/04/27 06:23:38;;;;;;;10.63;6.10;;;;;;;;;;5111794;28;20682;-51
2022/04/27 06:26:05;;;;;;;13.50;6.50;;;;;;;;;;5112098;28;20202;-51
2022/04/27 06:28:33;;;;;;;8.60;5.87;;;;;;;;;;5111902;28;20684;-52
2022/04/27 06:30:59;;;;;;;13.07;5.77;;;;;;;;;;5111998;28;20194;-50
2022/04/27 06:33:25;;;;;;;7.17;5.50;;;;;;;;;;5111924;28;20547;-51
2022/04/27 06:35:51;;;;;;;12.20;6.33;;;;;;;;;;5111929;28;20194;-51
2022/04/27 06:38:17;;;;;;;8.27;6.30;;;;;;;;;;5112175;28;20198;-52
2022/04/27 06:40:43;;;;;;;9.43;5.97;;;;;;;;;;5111760;28;20190;-50
2022/04/27 06:43:09;;;;;;;9.97;6.50;;;;;;;;;;5113180;28;20228;-51
2022/04/27 06:45:37;;;;;;;11.97;6.53;;;;;;;;;;5116071;28;20206;-51
2022/04/27 06:48:03;;;;;;;9.07;5.93;;;;;;;;;;5116003;28;20226;-52
2022/04/27 06:50:29;;;;;;;9.20;6.23;;;;;;;;;;5116183;28;20203;-54
2022/04/27 06:52:58;;;;;;;11.33;7.10;;;;;;;;;;5115979;28;20239;-52
2022/04/27 06:55:25;;;;;;;12.23;6.40;;;;;;;;;;5115926;28;20224;-53
2022/04/27 06:57:51;;;;;;;7.37;6.43;;;;;;;;;;5115847;28;20289;-53
2022/04/27 07:00:17;;;;;;;8.97;6.47;;;;;;;;;;5116096;28;20198;-53
2022/04/27 07:02:44;;;;;;;8.80;5.97;;;;;;;;;;5115782;28;20202;-53
2022/04/27 07:05:16;;;;;;;6.87;5.90;;;;;;;;;;5115735;28;20202;-53
2022/04/27 07:07:43;;;;;;;10.90;6.93;;;;;;;;;;5115494;28;20222;-54
2022/04/27 07:10:09;;;;;;;13.40;6.93;;;;;;;;;;5115519;28;20607;-53
2022/04/27 07:12:35;;;;;;;11.03;6.10;;;;;;;;;;5115321;28;20318;-53
2022/04/27 07:15:01;;;;;;;10.83;6.40;;;;;;;;;;5115287;28;20248;-53
2022/04/27 07:17:27;;;;;;;11.33;5.90;;;;;;;;;;5115801;28;20182;-53
2022/04/27 07:19:54;;;;;;;12.53;6.50;;;;;;;;;;5115427;28;20227;-51
2022/04/27 07:22:20;;;;;;;11.53;5.80;;;;;;;;;;5115343;28;20592;-51
2022/04/27 07:24:47;;;;;;;7.67;5.37;;;;;;;;;;5115222;28;20220;-53
2022/04/27 07:27:13;;;;;;;11.07;5.80;;;;;;;;;;5113921;28;20198;-51
2022/04/27 07:29:39;;;;;;;12.87;5.60;;;;;;;;;;5115138;28;20888;-54
2022/04/27 07:32:05;;;;;;;8.37;5.30;;;;;;;;;;5115170;28;20257;-52
2022/04/27 07:34:32;;;;;;;10.30;5.07;;;;;;;;;;5113586;28;20277;-51
2022/04/27 07:37:01;;;;;;;8.60;4.90;;;;;;;;;;5115255;28;20660;-53
2022/04/27 07:39:27;;;;;;;7.57;4.67;;;;;;;;;;5114995;28;20199;-52
2022/04/27 07:41:53;;;;;;;8.07;3.90;;;;;;;;;;5114574;28;20294;-52
2022/04/27 07:44:19;;;;;;;5.80;3.10;;;;;;;;;;5114693;28;20293;-52
2022/04/27 07:46:48;;;;;;;6.50;3.27;;;;;;;;;;5114752;28;20292;-54
2022/04/27 07:49:14;;;;;;;5.23;3.10;;;;;;;;;;5114848;28;20245;-54
2022/04/27 07:51:40;;;;;;;5.10;2.90;;;;;;;;;;5114796;28;20665;-54
2022/04/27 07:54:08;;;;;;;4.83;2.53;;;;;;;;;;5112482;28;20201;-54
2022/04/27 07:56:34;;;;;;;5.77;2.43;;;;;;;;;;5113363;28;20198;-54
2022/04/27 07:59:00;;;;;;;4.97;2.63;;;;;;;;;;5114562;28;20200;-54
2022/04/27 08:01:26;;;;;;;5.60;2.43;;;;;;;;;;5114511;28;20200;-54
2022/04/27 08:03:52;;;;;;;4.83;2.53;;;;;;;;;;5114254;28;20202;-54
2022/04/27 08:06:18;;;;;;;4.53;2.53;;;;;;;;;;5114366;28;20190;-53
2022/04/27 08:08:44;;;;;;;5.17;2.13;;;;;;;;;;5114238;28;20313;-55
2022/04/27 08:11:13;;;;;;;5.13;2.90;;;;;;;;;;5114375;28;20330;-55
2022/04/27 08:13:39;;;;;;;5.17;2.40;;;;;;;;;;5114229;28;20280;-54
2022/04/27 08:16:07;;;;;;;5.27;3.13;;;;;;;;;;5113983;28;20241;-54
2022/04/27 08:18:34;;;;;;;6.10;3.00;;;;;;;;;;5114040;28;20617;-54
2022/04/27 08:21:16;;;;;;;6.13;2.97;;;;;;;;;;5114108;28;20209;-54
2022/04/27 08:23:43;;;;;;;2.80;2.30;;;;;;;;;;5113949;28;20198;-54
2022/04/27 08:26:10;;;;;;;5.07;2.83;;;;;;;;;;5114045;28;20229;-54
2022/04/27 08:28:38;;;;;;;5.43;2.73;;;;;;;;;;5114195;28;20245;-54
2022/04/27 08:31:04;;;;;;;6.73;2.93;;;;;;;;;;5114023;28;20198;-54
2022/04/27 08:33:30;;;;;;;5.47;2.80;;;;;;;;;;5113854;28;20277;-54
2022/04/27 08:36:00;;;;;;;5.77;2.80;;;;;;;;;;5114215;28;20210;-54
2022/04/27 08:38:26;;;;;;;6.60;3.57;;;;;;;;;;5113962;28;20190;-55
2022/04/27 08:40:52;;;;;;;4.43;3.10;;;;;;;;;;5113953;28;20411;-54
2022/04/27 08:43:18;;;;;;;6.23;3.10;;;;;;;;;;5114156;28;20194;-53
2022/04/27 08:45:46;;;;;;;6.53;3.20;;;;;;;;;;5114101;28;20205;-54
2022/04/27 08:48:13;;;;;;;6.50;3.80;;;;;;;;;;5113982;28;20219;-54
2022/04/27 08:50:40;;;;;;;3.97;2.60;;;;;;;;;;5113815;28;20251;-54
2022/04/27 08:53:06;;;;;;;4.50;3.07;;;;;;;;;;5113887;28;20255;-53
2022/04/27 08:55:32;;;;;;;5.13;3.27;;;;;;;;;;5113716;28;20199;-53
2022/04/27 08:58:06;;;;;;;7.27;3.30;;;;;;;;;;5113702;28;20196;-53
2022/04/27 09:00:32;;;;;;;4.73;2.80;;;;;;;;;;5113691;28;20244;-54
2022/04/27 09:03:21;;;;;;;4.20;3.23;;;;;;;;;;5113420;28;20211;-53
2022/04/27 09:05:49;;;;;;;6.07;3.60;;;;;;;;;;5112815;28;20197;-53
2022/04/27 09:08:15;;;;;;;4.27;2.80;;;;;;;;;;5111271;28;20224;-54
2022/04/27 09:10:41;;;;;;;6.07;3.67;;;;;;;;;;5113395;28;20313;-54
2022/04/27 09:13:07;;;;;;;4.53;2.97;;;;;;;;;;5111473;28;20664;-54
2022/04/27 09:15:33;;;;;;;4.57;3.30;;;;;;;;;;5112913;28;20263;-54
2022/04/27 09:20:50;;;;;;;4.17;3.00;;;;;;;;;;5113161;28;20683;-54
2022/04/27 09:23:21;;;;;;;9.53;4.00;;;;;;;;;;5112909;28;20244;-54
2022/04/27 09:25:47;;;;;;;10.07;3.07;;;;;;;;;;5112510;28;20205;-54
2022/04/27 09:28:22;;;;;;;5.93;3.23;;;;;;;;;;5112647;28;20669;-54
2022/04/27 09:30:49;;;;;;;9.13;4.63;;;;;;;;;;5112449;28;20212;-54
2022/04/27 09:33:29;;;;;;;4.57;3.70;;;;;;;;;;5112608;28;20216;-54
2022/04/27 09:35:56;;;;;;;4.43;3.63;;;;;;;;;;5112316;28;20205;-54
2022/04/27 09:38:22;;;;;;;6.67;3.70;;;;;;;;;;5112482;28;20237;-54
2022/04/27 09:40:48;;;;;;;4.40;3.70;;;;;;;;;;5112184;28;20202;-54
2022/04/27 09:43:15;;;;;;;4.40;3.10;;;;;;;;;;5112433;28;20247;-54
2022/04/27 09:45:42;;;;;;;7.07;3.27;;;;;;;;;;5112234;28;20198;-54
2022/04/27 09:48:11;;;;;;;5.07;3.10;;;;;;;;;;5112104;28;20221;-54
2022/04/27 09:50:58;;;;;;;7.50;3.67;;;;;;;;;;5112133;28;20208;-54
2022/04/27 09:53:24;;;;;;;6.20;3.37;;;;;;;;;;5112658;28;20214;-54
2022/04/27 09:55:52;;;;;;;6.77;3.80;;;;;;;;;;5112414;28;20244;-55
2022/04/27 09:58:21;;;;;;;5.10;3.47;;;;;;;;;;5112591;28;20616;-54
2022/04/27 10:00:52;;;;;;;7.47;3.47;;;;;;;;;;5111818;28;20204;-54
2022/04/27 10:03:19;;;;;;;7.10;3.60;;;;;;;;;;5112398;28;20251;-54
2022/04/27 10:05:47;;;;;;;4.93;3.50;;;;;;;;;;5112391;28;20190;-54
2022/04/27 10:08:13;;;;;;;6.60;3.70;;;;;;;;;;5112219;28;20587;-54
2022/04/27 10:10:41;;;;;;;4.57;3.13;;;;;;;;;;5112346;28;20186;-54
2022/04/27 10:13:10;;;;;;;5.83;3.00;;;;;;;;;;5112418;28;20225;-55
2022/04/27 10:15:36;;;;;;;5.60;3.00;;;;;;;;;;5112349;28;20291;-54
2022/04/27 10:18:03;;;;;;;6.30;3.30;;;;;;;;;;5111940;28;20195;-54
2022/04/27 10:20:30;;;;;;;5.23;3.00;;;;;;;;;;5112387;28;20197;-54
2022/04/27 10:23:14;;;;;;;7.03;3.43;;;;;;;;;;5112287;28;20191;-54
2022/04/27 10:25:42;;;;;;;7.20;3.80;;;;;;;;;;5112036;28;20683;-54
2022/04/27 10:28:16;;;;;;;6.23;3.23;;;;;;;;;;5112093;28;20224;-54
2022/04/27 10:30:43;;;;;;;6.07;3.50;;;;;;;;;;5112138;28;20194;-54
2022/04/27 10:33:09;;;;;;;6.73;3.53;;;;;;;;;;5112279;28;20210;-54
2022/04/27 10:35:36;;;;;;;12.47;4.30;;;;;;;;;;5112086;28;20205;-55
2022/04/27 10:38:05;;;;;;;7.73;3.47;;;;;;;;;;5112002;28;20205;-54
2022/04/27 10:40:32;;;;;;;5.53;3.57;;;;;;;;;;5112200;28;20272;-54
2022/04/27 10:43:15;;;;;;;8.13;3.50;;;;;;;;;;5111986;28;20194;-54
2022/04/27 10:45:41;;;;;;;5.40;3.40;;;;;;;;;;5112267;28;20207;-54
2022/04/27 10:48:08;;;;;;;4.93;3.40;;;;;;;;;;5111761;28;20286;-54
2022/04/27 10:50:35;;;;;;;9.27;3.90;;;;;;;;;;5112064;28;20233;-54
2022/04/27 10:53:20;;;;;;;6.77;3.47;;;;;;;;;;5111912;28;20217;-55
2022/04/27 10:55:48;;;;;;;8.37;3.70;;;;;;;;;;5111965;28;20229;-53
2022/04/27 10:58:30;;;;;;;3.77;3.30;;;;;;;;;;5111764;28;20474;-51
2022/04/27 11:01:27;;;;;;;4.60;3.47;;;;;;;;;;5109857;28;20675;-54
2022/04/27 11:04:01;;;;;;;7.47;3.80;;;;;;;;;;5111870;28;20205;-53
2022/04/27 11:06:30;;;;;;;22.00;4.70;;;;;;;;;;5112075;28;20322;-52
2022/04/27 11:09:10;;;;;;;12.53;4.03;;;;;;;;;;5111630;28;20587;-52
2022/04/27 11:11:50;;;;;;;5.33;3.50;;;;;;;;;;5107418;28;20191;-50
2022/04/27 11:14:16;;;;;;;6.60;3.77;;;;;;;;;;5111542;28;20255;-51
2022/04/27 11:16:43;;;;;;;5.03;3.37;;;;;;;;;;5111610;28;20238;-51
2022/04/27 11:19:11;;;;;;;5.27;3.30;;;;;;;;;;5111617;28;20221;-50
2022/04/27 11:21:37;;;;;;;4.73;3.17;;;;;;;;;;5111721;28;20206;-50
2022/04/27 11:24:05;;;;;;;4.63;3.20;;;;;;;;;;5111626;28;20262;-50
2022/04/27 11:26:31;;;;;;;6.33;3.37;;;;;;;;;;5111772;28;20206;-51
2022/04/27 11:28:58;;;;;;;8.03;3.50;;;;;;;;;;5111425;28;20261;-51
2022/04/27 11:31:24;;;;;;;9.03;3.43;;;;;;;;;;5114586;28;20611;-50
2022/04/27 11:33:50;;;;;;;5.13;3.20;;;;;;;;;;5115192;28;20213;-50
2022/04/27 11:36:24;;;;;;;6.43;3.40;;;;;;;;;;5115214;28;20224;-57
2022/04/27 11:38:50;;;;;;;6.43;3.33;;;;;;;;;;5114912;28;20198;-50
2022/04/27 11:41:18;;;;;;;7.63;3.87;;;;;;;;;;5114995;28;20216;-49
2022/04/27 11:43:44;;;;;;;6.07;3.57;;;;;;;;;;5114999;28;20206;-50
2022/04/27 11:46:11;;;;;;;4.40;3.37;;;;;;;;;;5115199;28;20199;-51
2022/04/27 11:48:37;;;;;;;8.47;3.73;;;;;;;;;;5114601;28;20700;-51
2022/04/27 11:51:03;;;;;;;5.27;3.80;;;;;;;;;;5114903;28;20260;-51
2022/04/27 11:53:30;;;;;;;4.67;3.17;;;;;;;;;;5114983;28;20198;-51
2022/04/27 11:55:59;;;;;;;4.83;3.10;;;;;;;;;;5114905;28;20206;-52
2022/04/27 11:58:26;;;;;;;5.73;3.17;;;;;;;;;;5114842;28;20240;-52
2022/04/27 12:00:54;;;;;;;7.60;3.53;;;;;;;;;;5114603;28;20272;-51
2022/04/27 12:03:20;;;;;;;3.67;2.83;;;;;;;;;;5113964;28;20639;-52
2022/04/27 12:05:51;;;;;;;6.80;3.27;;;;;;;;;;5114524;28;20199;-51
2022/04/27 12:08:19;;;;;;;12.43;3.37;;;;;;;;;;5114533;28;20735;-52
2022/04/27 12:10:46;;;;;;;6.07;3.27;;;;;;;;;;5114602;28;20191;-52
2022/04/27 12:13:13;;;;;;;6.30;3.50;;;;;;;;;;5114633;28;20210;-53
2022/04/27 12:15:40;;;;;;;5.00;3.00;;;;;;;;;;5114308;28;20262;-53
2022/04/27 12:18:06;;;;;;;4.00;2.73;;;;;;;;;;5114401;28;20335;-52
2022/04/27 12:20:36;;;;;;;4.40;3.07;;;;;;;;;;5114395;28;20200;-52
2022/04/27 12:23:05;;;;;;;7.27;3.50;;;;;;;;;;5114791;28;20211;-52
2022/04/27 12:25:32;;;;;;;6.93;3.37;;;;;;;;;;5114417;28;20220;-52
2022/04/27 12:28:00;;;;;;;5.87;3.80;;;;;;;;;;5114176;28;20200;-52
2022/04/27 12:30:26;;;;;;;4.83;3.70;;;;;;;;;;5114339;28;20232;-51
2022/04/27 12:32:52;;;;;;;7.67;3.10;;;;;;;;;;5114122;28;20210;-52
2022/04/27 12:38:12;;;;;;;7.60;3.20;;;;;;;;;;5113786;28;20685;-52
2022/04/27 12:40:42;;;;;;;5.10;3.37;;;;;;;;;;5113856;28;20194;-52
2022/04/27 12:43:12;;;;;;;5.27;3.50;;;;;;;;;;5113766;28;20214;-52
2022/04/27 12:45:38;;;;;;;4.73;3.37;;;;;;;;;;5113938;28;20222;-53
2022/04/27 12:48:05;;;;;;;4.70;3.50;;;;;;;;;;5113649;28;20221;-53
2022/04/27 12:50:32;;;;;;;8.00;3.37;;;;;;;;;;5113914;28;20642;-52
2022/04/27 12:53:07;;;;;;;5.00;3.53;;;;;;;;;;5113479;28;20281;-52
2022/04/27 12:55:33;;;;;;;4.87;3.30;;;;;;;;;;5111674;28;20642;-51
2022/04/27 12:58:00;;;;;;;3.77;2.73;;;;;;;;;;5113556;28;20210;-54
2022/04/27 13:00:42;;;;;;;5.07;3.30;;;;;;;;;;5113591;28;20194;-56
2022/04/27 13:03:08;;;;;;;4.53;3.27;;;;;;;;;;5113405;28;20207;-58
2022/04/27 13:05:36;;;;;;;5.17;3.17;;;;;;;;;;5113394;28;20210;-57
2022/04/27 13:08:02;;;;;;;6.33;3.37;;;;;;;;;;5113332;28;20199;-57
2022/04/27 13:13:15;;;;;;;4.87;3.20;;;;;;;;;;5113556;28;20189;-56
2022/04/27 13:15:42;;;;;;;5.33;3.30;;;;;;;;;;5113104;28;20743;-56
2022/04/27 13:18:08;;;;;;;4.47;3.50;;;;;;;;;;5113251;28;20281;-57
2022/04/27 13:20:34;;;;;;;5.07;3.60;;;;;;;;;;5113188;28;20277;-56
2022/04/27 13:23:00;;;;;;;5.87;3.23;;;;;;;;;;5113283;28;20221;-56
2022/04/27 13:25:26;;;;;;;4.70;3.30;;;;;;;;;;5113361;28;20271;-56
2022/04/27 13:27:52;;;;;;;9.50;3.40;;;;;;;;;;5113127;28;20201;-56
2022/04/27 13:30:18;;;;;;;6.53;3.17;;;;;;;;;;5113270;28;20198;-56
2022/04/27 13:32:48;;;;;;;5.43;3.50;;;;;;;;;;5113005;28;20182;-56
2022/04/27 13:35:14;;;;;;;5.53;2.80;;;;;;;;;;5113372;28;20236;-56
2022/04/27 13:37:40;;;;;;;5.97;3.30;;;;;;;;;;5113120;28;20220;-57
2022/04/27 13:40:07;;;;;;;4.17;3.50;;;;;;;;;;5112929;28;20199;-57
2022/04/27 13:42:33;;;;;;;5.23;3.13;;;;;;;;;;5113051;28;20203;-57
2022/04/27 13:44:59;;;;;;;6.30;3.17;;;;;;;;;;5111153;28;20224;-56
2022/04/27 13:47:26;;;;;;;5.77;3.30;;;;;;;;;;5112768;28;20198;-57
2022/04/27 13:49:53;;;;;;;4.67;3.20;;;;;;;;;;5112571;28;20271;-56
2022/04/27 13:52:19;;;;;;;5.33;3.23;;;;;;;;;;5112122;28;20206;-58
2022/04/27 13:54:45;;;;;;;7.63;3.50;;;;;;;;;;5110822;28;20187;-57
2022/04/27 13:57:11;;;;;;;6.73;3.73;;;;;;;;;;5112150;28;20665;-57
2022/04/27 13:59:37;;;;;;;5.80;3.20;;;;;;;;;;5112268;28;20278;-57
2022/04/27 14:02:05;;;;;;;9.77;3.53;;;;;;;;;;5112025;28;20672;-57
2022/04/27 14:04:31;;;;;;;5.77;3.30;;;;;;;;;;5112133;28;20665;-57
2022/04/27 14:06:58;;;;;;;4.10;3.30;;;;;;;;;;5112082;28;20250;-57
2022/04/27 14:09:24;;;;;;;3.93;2.70;;;;;;;;;;5112170;28;20315;-57
2022/04/27 14:14:36;;;;;;;3.97;3.00;;;;;;;;;;5111959;28;20315;-57
2022/04/27 14:19:47;;;;;;;4.73;2.80;;;;;;;;;;5112046;28;20213;-57
2022/04/27 14:22:15;;;;;;;4.77;3.07;;;;;;;;;;5112191;28;20283;-57
2022/04/27 14:24:41;;;;;;;6.13;3.57;;;;;;;;;;5111693;28;20256;-57
2022/04/27 14:27:07;;;;;;;4.63;3.20;;;;;;;;;;5111703;28;20194;-57
2022/04/27 14:29:33;;;;;;;6.17;2.87;;;;;;;;;;5111992;28;20261;-57
2022/04/27 14:32:01;;;;;;;4.83;3.40;;;;;;;;;;5111803;28;20217;-57
2022/04/27 14:34:28;;;;;;;5.00;3.23;;;;;;;;;;5111796;28;20558;-57
2022/04/27 14:36:54;;;;;;;4.63;3.00;;;;;;;;;;5111836;28;20194;-57
2022/04/27 14:39:21;;;;;;;4.00;2.90;;;;;;;;;;5111937;28;20205;-57
2022/04/27 14:41:47;;;;;;;5.67;3.30;;;;;;;;;;5111749;28;20206;-56
2022/04/27 14:44:13;;;;;;;4.60;3.30;;;;;;;;;;5111945;28;20683;-56
2022/04/27 14:46:39;;;;;;;9.47;3.53;;;;;;;;;;5111639;28;20247;-56
2022/04/27 14:49:05;;;;;;;5.50;3.13;;;;;;;;;;5111483;28;20229;-56
2022/04/27 14:51:31;;;;;;;6.00;3.53;;;;;;;;;;5111804;28;20297;-56
2022/04/27 14:53:57;;;;;;;7.60;3.50;;;;;;;;;;5111671;28;20201;-57
2022/04/27 14:56:24;;;;;;;9.00;3.63;;;;;;;;;;5111893;28;20233;-57
2022/04/27 14:58:50;;;;;;;6.97;4.00;;;;;;;;;;5111634;28;20209;-57
2022/04/27 15:01:16;;;;;;;8.13;3.17;;;;;;;;;;5111784;28;20190;-57
2022/04/27 15:03:42;;;;;;;3.47;3.13;;;;;;;;;;5111680;28;20224;-57
2022/04/27 15:06:09;;;;;;;4.43;3.40;;;;;;;;;;5114562;28;20683;-57
2022/04/27 15:08:35;;;;;;;3.87;3.23;;;;;;;;;;5115426;28;20701;-57